sensor_id;sensor_type;location;lat;lon;timestamp;P1;durP1;ratioP1;P2;durP2;ratioP2
58095;SDS011;43908;53.038;6.666;2022-07-15T00:02:04;7.78;;;1.75;;
58095;SDS011;43908;53.038;6.666;2022-07-15T00:04:30;7.85;;;2.03;;
58095;SDS011;43908;53.038;6.666;2022-07-15T00:06:56;6.10;;;1.77;;
58095;SDS011;43908;53.038;6.666;2022-07-15T00:09:22;6.18;;;1.55;;
58095;SDS011;43908;53.038;6.666;2022-07-15T00:12:08;5.00;;;1.50;;
58095;SDS011;43908;53.038;6.666;2022-07-15T00:14:34;7.03;;;2.10;;
58095;SDS011;43908;53.038;6.666;2022-07-15T00:16:59;6.75;;;2.33;;
58095;SDS011;43908;53.038;6.666;2022-07-15T00:19:25;8.38;;;2.13;;
58095;SDS011;43908;53.038;6.666;2022-07-15T00:21:50;7.95;;;1.80;;
58095;SDS011;43908;53.038;6.666;2022-07-15T00:24:16;4.18;;;1.90;;
58095;SDS011;43908;53.038;6.666;2022-07-15T00:26:41;5.90;;;1.77;;
58095;SDS011;43908;53.038;6.666;2022-07-15T00:29:07;7.32;;;1.77;;
58095;SDS011;43908;53.038;6.666;2022-07-15T00:31:32;9.15;;;1.95;;
58095;SDS011;43908;53.038;6.666;2022-07-15T00:33:58;7.88;;;2.15;;
58095;SDS011;43908;53.038;6.666;2022-07-15T00:36:24;7.82;;;1.85;;
58095;SDS011;43908;53.038;6.666;2022-07-15T00:38:49;8.35;;;2.10;;
58095;SDS011;43908;53.038;6.666;2022-07-15T00:41:15;2.72;;;1.50;;
58095;SDS011;43908;53.038;6.666;2022-07-15T00:43:40;11.52;;;2.00;;
58095;SDS011;43908;53.038;6.666;2022-07-15T00:46:06;6.63;;;1.50;;
58095;SDS011;43908;53.038;6.666;2022-07-15T00:48:32;7.40;;;1.98;;
58095;SDS011;43908;53.038;6.666;2022-07-15T00:50:57;7.18;;;1.80;;
58095;SDS011;43908;53.038;6.666;2022-07-15T00:53:23;5.78;;;1.83;;
58095;SDS011;43908;53.038;6.666;2022-07-15T00:55:53;7.13;;;1.83;;
58095;SDS011;43908;53.038;6.666;2022-07-15T00:58:24;6.70;;;2.10;;
58095;SDS011;43908;53.038;6.666;2022-07-15T01:00:52;7.28;;;2.03;;
58095;SDS011;43908;53.038;6.666;2022-07-15T01:03:19;7.07;;;1.70;;
58095;SDS011;43908;53.038;6.666;2022-07-15T01:05:45;7.70;;;1.70;;
58095;SDS011;43908;53.038;6.666;2022-07-15T01:08:12;7.20;;;1.80;;
58095;SDS011;43908;53.038;6.666;2022-07-15T01:10:38;7.10;;;1.92;;
58095;SDS011;43908;53.038;6.666;2022-07-15T01:13:04;11.18;;;2.30;;
58095;SDS011;43908;53.038;6.666;2022-07-15T01:15:30;7.55;;;1.55;;
58095;SDS011;43908;53.038;6.666;2022-07-15T01:17:58;7.28;;;1.92;;
58095;SDS011;43908;53.038;6.666;2022-07-15T01:20:24;6.40;;;1.58;;
58095;SDS011;43908;53.038;6.666;2022-07-15T01:22:50;8.02;;;2.05;;
58095;SDS011;43908;53.038;6.666;2022-07-15T01:25:15;7.55;;;1.73;;
58095;SDS011;43908;53.038;6.666;2022-07-15T01:27:41;6.10;;;1.58;;
58095;SDS011;43908;53.038;6.666;2022-07-15T01:30:07;7.68;;;2.10;;
58095;SDS011;43908;53.038;6.666;2022-07-15T01:32:33;4.55;;;1.35;;
58095;SDS011;43908;53.038;6.666;2022-07-15T01:34:59;9.30;;;2.22;;
58095;SDS011;43908;53.038;6.666;2022-07-15T01:37:25;8.80;;;1.98;;
58095;SDS011;43908;53.038;6.666;2022-07-15T01:39:51;6.03;;;1.90;;
58095;SDS011;43908;53.038;6.666;2022-07-15T01:42:16;8.48;;;2.40;;
58095;SDS011;43908;53.038;6.666;2022-07-15T01:44:42;6.65;;;1.95;;
58095;SDS011;43908;53.038;6.666;2022-07-15T01:47:08;6.78;;;2.10;;
58095;SDS011;43908;53.038;6.666;2022-07-15T01:49:34;7.43;;;2.13;;
58095;SDS011;43908;53.038;6.666;2022-07-15T01:52:00;5.80;;;1.77;;
58095;SDS011;43908;53.038;6.666;2022-07-15T01:54:27;7.80;;;1.55;;
58095;SDS011;43908;53.038;6.666;2022-07-15T01:56:54;7.65;;;1.92;;
58095;SDS011;43908;53.038;6.666;2022-07-15T01:59:20;7.40;;;1.90;;
58095;SDS011;43908;53.038;6.666;2022-07-15T02:01:54;7.40;;;1.80;;
58095;SDS011;43908;53.038;6.666;2022-07-15T02:04:20;9.32;;;2.53;;
58095;SDS011;43908;53.038;6.666;2022-07-15T02:06:47;7.38;;;1.80;;
58095;SDS011;43908;53.038;6.666;2022-07-15T02:09:13;9.05;;;2.10;;
58095;SDS011;43908;53.038;6.666;2022-07-15T02:11:39;6.53;;;1.88;;
58095;SDS011;43908;53.038;6.666;2022-07-15T02:14:04;8.88;;;1.88;;
58095;SDS011;43908;53.038;6.666;2022-07-15T02:16:30;9.68;;;2.00;;
58095;SDS011;43908;53.038;6.666;2022-07-15T02:18:57;6.53;;;2.20;;
58095;SDS011;43908;53.038;6.666;2022-07-15T02:21:24;8.18;;;2.13;;
58095;SDS011;43908;53.038;6.666;2022-07-15T02:23:51;7.30;;;2.00;;
58095;SDS011;43908;53.038;6.666;2022-07-15T02:26:18;7.05;;;2.25;;
58095;SDS011;43908;53.038;6.666;2022-07-15T02:28:44;11.27;;;2.20;;
58095;SDS011;43908;53.038;6.666;2022-07-15T02:31:10;6.85;;;2.35;;
58095;SDS011;43908;53.038;6.666;2022-07-15T02:33:36;5.18;;;1.85;;
58095;SDS011;43908;53.038;6.666;2022-07-15T02:36:02;6.50;;;2.17;;
58095;SDS011;43908;53.038;6.666;2022-07-15T02:38:28;8.07;;;1.92;;
58095;SDS011;43908;53.038;6.666;2022-07-15T02:40:54;7.43;;;1.77;;
58095;SDS011;43908;53.038;6.666;2022-07-15T02:43:19;6.50;;;1.92;;
58095;SDS011;43908;53.038;6.666;2022-07-15T02:45:46;4.70;;;2.25;;
58095;SDS011;43908;53.038;6.666;2022-07-15T02:48:12;6.10;;;1.67;;
58095;SDS011;43908;53.038;6.666;2022-07-15T02:50:40;7.80;;;1.90;;
58095;SDS011;43908;53.038;6.666;2022-07-15T02:53:06;7.97;;;1.65;;
58095;SDS011;43908;53.038;6.666;2022-07-15T02:55:32;5.97;;;1.70;;
58095;SDS011;43908;53.038;6.666;2022-07-15T02:57:58;7.22;;;2.10;;
58095;SDS011;43908;53.038;6.666;2022-07-15T03:00:24;14.32;;;2.40;;
58095;SDS011;43908;53.038;6.666;2022-07-15T03:02:50;10.20;;;2.58;;
58095;SDS011;43908;53.038;6.666;2022-07-15T03:05:16;6.55;;;2.13;;
58095;SDS011;43908;53.038;6.666;2022-07-15T03:07:43;7.53;;;2.13;;
58095;SDS011;43908;53.038;6.666;2022-07-15T03:10:09;5.95;;;1.98;;
58095;SDS011;43908;53.038;6.666;2022-07-15T03:12:36;4.95;;;1.50;;
58095;SDS011;43908;53.038;6.666;2022-07-15T03:15:01;8.32;;;2.30;;
58095;SDS011;43908;53.038;6.666;2022-07-15T03:17:28;5.70;;;2.13;;
58095;SDS011;43908;53.038;6.666;2022-07-15T03:19:53;7.45;;;2.53;;
58095;SDS011;43908;53.038;6.666;2022-07-15T03:22:23;7.65;;;1.73;;
58095;SDS011;43908;53.038;6.666;2022-07-15T03:24:49;8.40;;;2.10;;
58095;SDS011;43908;53.038;6.666;2022-07-15T03:27:15;8.02;;;1.80;;
58095;SDS011;43908;53.038;6.666;2022-07-15T03:29:41;6.57;;;1.88;;
58095;SDS011;43908;53.038;6.666;2022-07-15T03:32:07;5.68;;;1.50;;
58095;SDS011;43908;53.038;6.666;2022-07-15T03:34:34;4.95;;;1.73;;
58095;SDS011;43908;53.038;6.666;2022-07-15T03:36:59;3.88;;;1.70;;
58095;SDS011;43908;53.038;6.666;2022-07-15T03:39:25;7.20;;;1.67;;
58095;SDS011;43908;53.038;6.666;2022-07-15T03:41:50;5.57;;;1.90;;
58095;SDS011;43908;53.038;6.666;2022-07-15T03:44:16;4.85;;;2.00;;
58095;SDS011;43908;53.038;6.666;2022-07-15T03:46:43;6.68;;;1.60;;
58095;SDS011;43908;53.038;6.666;2022-07-15T03:49:12;8.43;;;2.13;;
58095;SDS011;43908;53.038;6.666;2022-07-15T03:51:38;3.58;;;1.83;;
58095;SDS011;43908;53.038;6.666;2022-07-15T03:54:04;4.15;;;1.70;;
58095;SDS011;43908;53.038;6.666;2022-07-15T03:56:30;6.82;;;1.90;;
58095;SDS011;43908;53.038;6.666;2022-07-15T03:58:56;5.60;;;1.60;;
58095;SDS011;43908;53.038;6.666;2022-07-15T04:01:22;6.95;;;1.83;;
58095;SDS011;43908;53.038;6.666;2022-07-15T04:03:48;4.57;;;2.05;;
58095;SDS011;43908;53.038;6.666;2022-07-15T04:06:15;7.05;;;1.80;;
58095;SDS011;43908;53.038;6.666;2022-07-15T04:08:41;7.40;;;1.55;;
58095;SDS011;43908;53.038;6.666;2022-07-15T04:11:08;6.30;;;2.00;;
58095;SDS011;43908;53.038;6.666;2022-07-15T04:13:34;5.07;;;1.48;;
58095;SDS011;43908;53.038;6.666;2022-07-15T04:15:59;5.82;;;1.55;;
58095;SDS011;43908;53.038;6.666;2022-07-15T04:18:25;6.25;;;1.83;;
58095;SDS011;43908;53.038;6.666;2022-07-15T04:20:51;6.85;;;1.95;;
58095;SDS011;43908;53.038;6.666;2022-07-15T04:23:17;4.18;;;1.65;;
58095;SDS011;43908;53.038;6.666;2022-07-15T04:25:42;5.95;;;1.95;;
58095;SDS011;43908;53.038;6.666;2022-07-15T04:28:08;3.45;;;1.30;;
58095;SDS011;43908;53.038;6.666;2022-07-15T04:30:34;4.10;;;1.40;;
58095;SDS011;43908;53.038;6.666;2022-07-15T04:32:59;5.32;;;1.65;;
58095;SDS011;43908;53.038;6.666;2022-07-15T04:35:25;4.47;;;1.30;;
58095;SDS011;43908;53.038;6.666;2022-07-15T04:37:51;4.18;;;1.30;;
58095;SDS011;43908;53.038;6.666;2022-07-15T04:40:16;4.15;;;1.60;;
58095;SDS011;43908;53.038;6.666;2022-07-15T04:42:42;4.25;;;1.38;;
58095;SDS011;43908;53.038;6.666;2022-07-15T04:45:08;5.45;;;1.33;;
58095;SDS011;43908;53.038;6.666;2022-07-15T04:47:34;5.32;;;1.27;;
58095;SDS011;43908;53.038;6.666;2022-07-15T04:49:59;4.32;;;1.27;;
58095;SDS011;43908;53.038;6.666;2022-07-15T04:52:44;6.05;;;1.55;;
58095;SDS011;43908;53.038;6.666;2022-07-15T04:55:10;5.75;;;1.30;;
58095;SDS011;43908;53.038;6.666;2022-07-15T04:57:37;6.07;;;1.35;;
58095;SDS011;43908;53.038;6.666;2022-07-15T05:00:03;7.57;;;1.23;;
58095;SDS011;43908;53.038;6.666;2022-07-15T05:02:29;4.93;;;1.02;;
58095;SDS011;43908;53.038;6.666;2022-07-15T05:04:55;3.58;;;0.93;;
58095;SDS011;43908;53.038;6.666;2022-07-15T05:07:21;3.70;;;0.85;;
58095;SDS011;43908;53.038;6.666;2022-07-15T05:09:46;4.32;;;1.20;;
58095;SDS011;43908;53.038;6.666;2022-07-15T05:12:12;5.95;;;1.08;;
58095;SDS011;43908;53.038;6.666;2022-07-15T05:14:38;5.80;;;0.95;;
58095;SDS011;43908;53.038;6.666;2022-07-15T05:17:05;5.30;;;1.20;;
58095;SDS011;43908;53.038;6.666;2022-07-15T05:19:32;8.43;;;1.52;;
58095;SDS011;43908;53.038;6.666;2022-07-15T05:21:58;6.53;;;1.15;;
58095;SDS011;43908;53.038;6.666;2022-07-15T05:24:24;4.05;;;1.02;;
58095;SDS011;43908;53.038;6.666;2022-07-15T05:26:49;3.72;;;1.23;;
58095;SDS011;43908;53.038;6.666;2022-07-15T05:29:15;4.72;;;1.10;;
58095;SDS011;43908;53.038;6.666;2022-07-15T05:31:40;3.75;;;1.10;;
58095;SDS011;43908;53.038;6.666;2022-07-15T05:34:06;2.92;;;0.82;;
58095;SDS011;43908;53.038;6.666;2022-07-15T05:36:32;3.33;;;1.15;;
58095;SDS011;43908;53.038;6.666;2022-07-15T05:38:57;4.63;;;1.30;;
58095;SDS011;43908;53.038;6.666;2022-07-15T05:41:23;3.78;;;0.70;;
58095;SDS011;43908;53.038;6.666;2022-07-15T05:43:49;3.05;;;1.02;;
58095;SDS011;43908;53.038;6.666;2022-07-15T05:46:14;10.95;;;1.65;;
58095;SDS011;43908;53.038;6.666;2022-07-15T05:48:40;5.43;;;1.05;;
58095;SDS011;43908;53.038;6.666;2022-07-15T05:51:06;1.30;;;0.60;;
58095;SDS011;43908;53.038;6.666;2022-07-15T05:53:32;4.18;;;0.90;;
58095;SDS011;43908;53.038;6.666;2022-07-15T05:55:58;4.90;;;1.02;;
58095;SDS011;43908;53.038;6.666;2022-07-15T05:58:24;3.28;;;0.80;;
58095;SDS011;43908;53.038;6.666;2022-07-15T06:00:50;4.07;;;0.70;;
58095;SDS011;43908;53.038;6.666;2022-07-15T06:03:16;3.55;;;0.80;;
58095;SDS011;43908;53.038;6.666;2022-07-15T06:05:42;2.80;;;0.70;;
58095;SDS011;43908;53.038;6.666;2022-07-15T06:08:08;3.58;;;0.80;;
58095;SDS011;43908;53.038;6.666;2022-07-15T06:10:34;2.53;;;0.63;;
58095;SDS011;43908;53.038;6.666;2022-07-15T06:13:00;3.42;;;0.80;;
58095;SDS011;43908;53.038;6.666;2022-07-15T06:15:25;1.65;;;0.60;;
58095;SDS011;43908;53.038;6.666;2022-07-15T06:17:51;4.43;;;0.65;;
58095;SDS011;43908;53.038;6.666;2022-07-15T06:20:18;2.17;;;0.50;;
58095;SDS011;43908;53.038;6.666;2022-07-15T06:22:44;5.25;;;0.82;;
58095;SDS011;43908;53.038;6.666;2022-07-15T06:25:10;3.35;;;0.68;;
58095;SDS011;43908;53.038;6.666;2022-07-15T06:27:36;1.88;;;0.70;;
58095;SDS011;43908;53.038;6.666;2022-07-15T06:30:03;3.25;;;0.60;;
58095;SDS011;43908;53.038;6.666;2022-07-15T06:32:30;4.03;;;0.60;;
58095;SDS011;43908;53.038;6.666;2022-07-15T06:34:56;3.45;;;0.75;;
58095;SDS011;43908;53.038;6.666;2022-07-15T06:37:21;4.70;;;0.82;;
58095;SDS011;43908;53.038;6.666;2022-07-15T06:39:47;3.03;;;0.60;;
58095;SDS011;43908;53.038;6.666;2022-07-15T06:42:13;2.90;;;0.73;;
58095;SDS011;43908;53.038;6.666;2022-07-15T06:44:39;3.58;;;0.77;;
58095;SDS011;43908;53.038;6.666;2022-07-15T06:47:05;4.65;;;0.82;;
58095;SDS011;43908;53.038;6.666;2022-07-15T06:49:32;4.80;;;1.17;;
58095;SDS011;43908;53.038;6.666;2022-07-15T06:51:58;10.55;;;1.25;;
58095;SDS011;43908;53.038;6.666;2022-07-15T06:54:24;3.38;;;0.70;;
58095;SDS011;43908;53.038;6.666;2022-07-15T06:56:50;2.33;;;0.50;;
58095;SDS011;43908;53.038;6.666;2022-07-15T06:59:15;6.32;;;0.88;;
58095;SDS011;43908;53.038;6.666;2022-07-15T07:01:41;3.85;;;1.15;;
58095;SDS011;43908;53.038;6.666;2022-07-15T07:04:06;3.47;;;0.88;;
58095;SDS011;43908;53.038;6.666;2022-07-15T07:06:32;3.95;;;0.70;;
58095;SDS011;43908;53.038;6.666;2022-07-15T07:08:58;3.55;;;0.55;;
58095;SDS011;43908;53.038;6.666;2022-07-15T07:11:24;2.45;;;0.68;;
58095;SDS011;43908;53.038;6.666;2022-07-15T07:13:50;3.70;;;0.70;;
58095;SDS011;43908;53.038;6.666;2022-07-15T07:16:16;2.70;;;0.55;;
58095;SDS011;43908;53.038;6.666;2022-07-15T07:18:42;2.67;;;0.70;;
58095;SDS011;43908;53.038;6.666;2022-07-15T07:21:10;3.22;;;0.70;;
58095;SDS011;43908;53.038;6.666;2022-07-15T07:23:36;1.55;;;0.60;;
58095;SDS011;43908;53.038;6.666;2022-07-15T07:26:04;3.03;;;0.50;;
58095;SDS011;43908;53.038;6.666;2022-07-15T07:28:31;2.58;;;1.00;;
58095;SDS011;43908;53.038;6.666;2022-07-15T07:30:57;4.38;;;0.70;;
58095;SDS011;43908;53.038;6.666;2022-07-15T07:33:23;2.08;;;0.40;;
58095;SDS011;43908;53.038;6.666;2022-07-15T07:35:49;1.70;;;0.45;;
58095;SDS011;43908;53.038;6.666;2022-07-15T07:38:15;5.57;;;0.70;;
58095;SDS011;43908;53.038;6.666;2022-07-15T07:40:40;3.25;;;0.52;;
58095;SDS011;43908;53.038;6.666;2022-07-15T07:43:06;2.00;;;0.63;;
58095;SDS011;43908;53.038;6.666;2022-07-15T07:45:32;4.28;;;0.70;;
58095;SDS011;43908;53.038;6.666;2022-07-15T07:47:57;2.22;;;0.40;;
58095;SDS011;43908;53.038;6.666;2022-07-15T07:50:23;3.15;;;0.73;;
58095;SDS011;43908;53.038;6.666;2022-07-15T07:52:49;8.27;;;0.80;;
58095;SDS011;43908;53.038;6.666;2022-07-15T07:55:15;2.88;;;0.68;;
58095;SDS011;43908;53.038;6.666;2022-07-15T07:57:51;3.45;;;0.40;;
58095;SDS011;43908;53.038;6.666;2022-07-15T08:00:19;1.92;;;0.60;;
58095;SDS011;43908;53.038;6.666;2022-07-15T08:02:45;1.50;;;0.40;;
58095;SDS011;43908;53.038;6.666;2022-07-15T08:05:12;1.08;;;0.45;;
58095;SDS011;43908;53.038;6.666;2022-07-15T08:07:38;1.83;;;0.65;;
58095;SDS011;43908;53.038;6.666;2022-07-15T08:10:04;2.33;;;0.50;;
58095;SDS011;43908;53.038;6.666;2022-07-15T08:12:30;3.05;;;0.65;;
58095;SDS011;43908;53.038;6.666;2022-07-15T08:14:56;1.83;;;0.40;;
58095;SDS011;43908;53.038;6.666;2022-07-15T08:17:22;1.70;;;0.35;;
58095;SDS011;43908;53.038;6.666;2022-07-15T08:19:48;2.47;;;0.45;;
58095;SDS011;43908;53.038;6.666;2022-07-15T08:22:14;13.13;;;2.05;;
58095;SDS011;43908;53.038;6.666;2022-07-15T08:24:40;2.22;;;0.60;;
58095;SDS011;43908;53.038;6.666;2022-07-15T08:27:06;2.63;;;0.70;;
58095;SDS011;43908;53.038;6.666;2022-07-15T08:29:32;5.57;;;1.17;;
58095;SDS011;43908;53.038;6.666;2022-07-15T08:31:57;1.50;;;0.40;;
58095;SDS011;43908;53.038;6.666;2022-07-15T08:34:23;2.95;;;0.73;;
58095;SDS011;43908;53.038;6.666;2022-07-15T08:36:49;1.73;;;0.40;;
58095;SDS011;43908;53.038;6.666;2022-07-15T08:39:14;11.05;;;1.80;;
58095;SDS011;43908;53.038;6.666;2022-07-15T08:41:40;3.22;;;0.47;;
58095;SDS011;43908;53.038;6.666;2022-07-15T08:44:06;1.73;;;0.40;;
58095;SDS011;43908;53.038;6.666;2022-07-15T08:46:33;2.25;;;0.50;;
58095;SDS011;43908;53.038;6.666;2022-07-15T08:49:04;3.72;;;0.55;;
58095;SDS011;43908;53.038;6.666;2022-07-15T08:51:35;1.48;;;0.45;;
58095;SDS011;43908;53.038;6.666;2022-07-15T08:54:04;3.15;;;0.90;;
58095;SDS011;43908;53.038;6.666;2022-07-15T08:56:31;1.73;;;0.40;;
58095;SDS011;43908;53.038;6.666;2022-07-15T08:58:59;1.60;;;0.40;;
58095;SDS011;43908;53.038;6.666;2022-07-15T09:01:27;2.28;;;0.45;;
58095;SDS011;43908;53.038;6.666;2022-07-15T09:03:53;2.40;;;0.60;;
58095;SDS011;43908;53.038;6.666;2022-07-15T09:06:38;2.67;;;0.60;;
58095;SDS011;43908;53.038;6.666;2022-07-15T09:12:07;2.10;;;0.40;;
58095;SDS011;43908;53.038;6.666;2022-07-15T09:14:35;2.30;;;0.43;;
58095;SDS011;43908;53.038;6.666;2022-07-15T09:22:22;2.58;;;0.50;;
58095;SDS011;43908;53.038;6.666;2022-07-15T09:25:00;1.35;;;0.40;;
58095;SDS011;43908;53.038;6.666;2022-07-15T09:27:32;1.60;;;0.40;;
58095;SDS011;43908;53.038;6.666;2022-07-15T09:33:16;3.60;;;0.57;;
58095;SDS011;43908;53.038;6.666;2022-07-15T09:38:55;1.60;;;0.40;;
58095;SDS011;43908;53.038;6.666;2022-07-15T09:46:51;1.05;;;0.30;;
58095;SDS011;43908;53.038;6.666;2022-07-15T09:51:48;1.60;;;0.40;;
58095;SDS011;43908;53.038;6.666;2022-07-15T09:54:19;1.13;;;0.45;;
58095;SDS011;43908;53.038;6.666;2022-07-15T09:56:46;1.10;;;0.35;;
58095;SDS011;43908;53.038;6.666;2022-07-15T09:59:13;0.98;;;0.32;;
58095;SDS011;43908;53.038;6.666;2022-07-15T10:01:40;1.55;;;0.45;;
58095;SDS011;43908;53.038;6.666;2022-07-15T10:04:06;0.73;;;0.30;;
58095;SDS011;43908;53.038;6.666;2022-07-15T10:06:33;1.55;;;0.40;;
58095;SDS011;43908;53.038;6.666;2022-07-15T10:09:03;1.00;;;0.40;;
58095;SDS011;43908;53.038;6.666;2022-07-15T10:11:31;1.05;;;0.30;;
58095;SDS011;43908;53.038;6.666;2022-07-15T10:25:23;2.75;;;0.50;;
58095;SDS011;43908;53.038;6.666;2022-07-15T10:28:03;0.68;;;0.30;;
58095;SDS011;43908;53.038;6.666;2022-07-15T10:30:32;2.10;;;0.50;;
58095;SDS011;43908;53.038;6.666;2022-07-15T10:33:18;1.45;;;0.50;;
58095;SDS011;43908;53.038;6.666;2022-07-15T10:35:51;1.00;;;0.43;;
58095;SDS011;43908;53.038;6.666;2022-07-15T10:38:34;1.17;;;0.35;;
58095;SDS011;43908;53.038;6.666;2022-07-15T10:41:08;2.33;;;0.50;;
58095;SDS011;43908;53.038;6.666;2022-07-15T10:48:52;0.57;;;0.40;;
58095;SDS011;43908;53.038;6.666;2022-07-15T10:54:02;2.03;;;0.50;;
58095;SDS011;43908;53.038;6.666;2022-07-15T10:56:33;2.92;;;0.50;;
58095;SDS011;43908;53.038;6.666;2022-07-15T11:02:29;1.40;;;0.43;;
58095;SDS011;43908;53.038;6.666;2022-07-15T11:04:40;2.00;;;0.47;;
58095;SDS011;43908;53.038;6.666;2022-07-15T11:17:42;4.10;;;0.40;;
58095;SDS011;43908;53.038;6.666;2022-07-15T11:20:12;1.92;;;0.45;;
58095;SDS011;43908;53.038;6.666;2022-07-15T11:22:46;2.15;;;0.40;;
58095;SDS011;43908;53.038;6.666;2022-07-15T11:30:36;2.72;;;0.40;;
58095;SDS011;43908;53.038;6.666;2022-07-15T11:33:05;3.42;;;0.52;;
58095;SDS011;43908;53.038;6.666;2022-07-15T11:35:41;2.30;;;0.50;;
58095;SDS011;43908;53.038;6.666;2022-07-15T11:38:08;3.55;;;0.73;;
58095;SDS011;43908;53.038;6.666;2022-07-15T11:40:34;1.42;;;0.60;;
58095;SDS011;43908;53.038;6.666;2022-07-15T11:43:19;1.83;;;0.70;;
58095;SDS011;43908;53.038;6.666;2022-07-15T11:46:03;2.45;;;0.52;;
58095;SDS011;43908;53.038;6.666;2022-07-15T11:48:34;1.25;;;0.40;;
58095;SDS011;43908;53.038;6.666;2022-07-15T11:51:04;1.13;;;0.50;;
58095;SDS011;43908;53.038;6.666;2022-07-15T11:53:39;1.75;;;0.50;;
58095;SDS011;43908;53.038;6.666;2022-07-15T11:56:06;1.90;;;0.40;;
58095;SDS011;43908;53.038;6.666;2022-07-15T11:58:35;1.83;;;0.45;;
58095;SDS011;43908;53.038;6.666;2022-07-15T12:01:12;0.50;;;0.32;;
58095;SDS011;43908;53.038;6.666;2022-07-15T12:06:21;3.25;;;0.60;;
58095;SDS011;43908;53.038;6.666;2022-07-15T12:11:21;3.47;;;1.45;;
58095;SDS011;43908;53.038;6.666;2022-07-15T12:13:48;1.15;;;0.40;;
58095;SDS011;43908;53.038;6.666;2022-07-15T12:16:17;1.60;;;0.40;;
58095;SDS011;43908;53.038;6.666;2022-07-15T12:18:45;1.85;;;0.40;;
58095;SDS011;43908;53.038;6.666;2022-07-15T12:21:11;2.08;;;0.30;;
58095;SDS011;43908;53.038;6.666;2022-07-15T12:23:37;0.90;;;0.40;;
58095;SDS011;43908;53.038;6.666;2022-07-15T12:26:03;2.42;;;0.65;;
58095;SDS011;43908;53.038;6.666;2022-07-15T12:28:31;0.32;;;0.20;;
58095;SDS011;43908;53.038;6.666;2022-07-15T12:30:57;0.82;;;0.30;;
58095;SDS011;43908;53.038;6.666;2022-07-15T12:33:24;1.42;;;0.57;;
58095;SDS011;43908;53.038;6.666;2022-07-15T12:35:50;1.40;;;0.47;;
58095;SDS011;43908;53.038;6.666;2022-07-15T12:38:38;0.60;;;0.30;;
58095;SDS011;43908;53.038;6.666;2022-07-15T12:41:04;1.27;;;0.40;;
58095;SDS011;43908;53.038;6.666;2022-07-15T12:43:50;2.20;;;0.47;;
58095;SDS011;43908;53.038;6.666;2022-07-15T12:46:47;1.05;;;0.40;;
58095;SDS011;43908;53.038;6.666;2022-07-15T12:49:39;2.40;;;0.40;;
58095;SDS011;43908;53.038;6.666;2022-07-15T12:52:18;1.67;;;0.40;;
58095;SDS011;43908;53.038;6.666;2022-07-15T12:54:47;0.30;;;0.30;;
58095;SDS011;43908;53.038;6.666;2022-07-15T12:57:31;0.55;;;0.45;;
58095;SDS011;43908;53.038;6.666;2022-07-15T13:00:12;0.85;;;0.47;;
58095;SDS011;43908;53.038;6.666;2022-07-15T13:06:03;1.63;;;0.40;;
58095;SDS011;43908;53.038;6.666;2022-07-15T13:08:28;1.70;;;0.60;;
58095;SDS011;43908;53.038;6.666;2022-07-15T13:11:00;1.25;;;0.47;;
58095;SDS011;43908;53.038;6.666;2022-07-15T13:13:28;8.52;;;0.80;;
58095;SDS011;43908;53.038;6.666;2022-07-15T13:15:58;0.85;;;0.40;;
58095;SDS011;43908;53.038;6.666;2022-07-15T13:18:26;26.80;;;1.58;;
58095;SDS011;43908;53.038;6.666;2022-07-15T13:20:53;0.80;;;0.45;;
58095;SDS011;43908;53.038;6.666;2022-07-15T13:23:19;2.35;;;0.45;;
58095;SDS011;43908;53.038;6.666;2022-07-15T13:25:45;1.50;;;0.40;;
58095;SDS011;43908;53.038;6.666;2022-07-15T13:28:12;1.63;;;0.60;;
58095;SDS011;43908;53.038;6.666;2022-07-15T13:30:38;3.05;;;0.68;;
58095;SDS011;43908;53.038;6.666;2022-07-15T13:33:04;2.13;;;0.65;;
58095;SDS011;43908;53.038;6.666;2022-07-15T13:35:31;2.45;;;0.50;;
58095;SDS011;43908;53.038;6.666;2022-07-15T13:37:57;1.75;;;0.52;;
58095;SDS011;43908;53.038;6.666;2022-07-15T13:40:22;1.90;;;0.60;;
58095;SDS011;43908;53.038;6.666;2022-07-15T13:42:48;0.70;;;0.50;;
58095;SDS011;43908;53.038;6.666;2022-07-15T13:45:14;2.47;;;0.93;;
58095;SDS011;43908;53.038;6.666;2022-07-15T13:47:40;1.65;;;0.60;;
58095;SDS011;43908;53.038;6.666;2022-07-15T13:50:06;1.55;;;0.52;;
58095;SDS011;43908;53.038;6.666;2022-07-15T13:52:52;2.72;;;0.70;;
58095;SDS011;43908;53.038;6.666;2022-07-15T13:55:19;2.53;;;0.75;;
58095;SDS011;43908;53.038;6.666;2022-07-15T13:57:46;2.58;;;0.80;;
58095;SDS011;43908;53.038;6.666;2022-07-15T14:00:13;1.58;;;0.60;;
58095;SDS011;43908;53.038;6.666;2022-07-15T14:02:42;2.45;;;0.70;;
58095;SDS011;43908;53.038;6.666;2022-07-15T14:05:08;3.47;;;0.80;;
58095;SDS011;43908;53.038;6.666;2022-07-15T14:07:35;2.08;;;0.50;;
58095;SDS011;43908;53.038;6.666;2022-07-15T14:10:02;2.33;;;0.93;;
58095;SDS011;43908;53.038;6.666;2022-07-15T14:12:28;3.05;;;0.90;;
58095;SDS011;43908;53.038;6.666;2022-07-15T14:14:54;1.52;;;0.70;;
58095;SDS011;43908;53.038;6.666;2022-07-15T14:17:19;2.17;;;0.80;;
58095;SDS011;43908;53.038;6.666;2022-07-15T14:19:45;1.98;;;1.05;;
58095;SDS011;43908;53.038;6.666;2022-07-15T14:22:10;2.20;;;1.00;;
58095;SDS011;43908;53.038;6.666;2022-07-15T14:24:36;1.67;;;0.90;;
58095;SDS011;43908;53.038;6.666;2022-07-15T14:27:02;2.00;;;0.80;;
58095;SDS011;43908;53.038;6.666;2022-07-15T14:29:28;2.50;;;1.10;;
58095;SDS011;43908;53.038;6.666;2022-07-15T14:31:54;0.95;;;0.60;;
58095;SDS011;43908;53.038;6.666;2022-07-15T14:34:20;4.32;;;0.95;;
58095;SDS011;43908;53.038;6.666;2022-07-15T14:36:45;2.13;;;0.85;;
58095;SDS011;43908;53.038;6.666;2022-07-15T14:39:11;1.27;;;0.75;;
58095;SDS011;43908;53.038;6.666;2022-07-15T14:41:37;3.40;;;1.40;;
58095;SDS011;43908;53.038;6.666;2022-07-15T14:44:02;2.40;;;1.02;;
58095;SDS011;43908;53.038;6.666;2022-07-15T14:46:28;2.35;;;0.73;;
58095;SDS011;43908;53.038;6.666;2022-07-15T14:48:54;3.80;;;1.00;;
58095;SDS011;43908;53.038;6.666;2022-07-15T14:51:20;1.58;;;0.80;;
58095;SDS011;43908;53.038;6.666;2022-07-15T14:53:46;3.30;;;1.20;;
58095;SDS011;43908;53.038;6.666;2022-07-15T14:56:11;2.88;;;0.93;;
58095;SDS011;43908;53.038;6.666;2022-07-15T14:58:37;1.25;;;0.75;;
58095;SDS011;43908;53.038;6.666;2022-07-15T15:01:02;2.25;;;0.90;;
58095;SDS011;43908;53.038;6.666;2022-07-15T15:03:28;2.65;;;1.33;;
58095;SDS011;43908;53.038;6.666;2022-07-15T15:05:54;1.60;;;0.95;;
58095;SDS011;43908;53.038;6.666;2022-07-15T15:08:21;1.45;;;1.00;;
58095;SDS011;43908;53.038;6.666;2022-07-15T15:10:47;2.25;;;1.00;;
58095;SDS011;43908;53.038;6.666;2022-07-15T15:13:12;3.20;;;1.17;;
58095;SDS011;43908;53.038;6.666;2022-07-15T15:15:38;2.92;;;1.20;;
58095;SDS011;43908;53.038;6.666;2022-07-15T15:18:03;1.90;;;0.88;;
58095;SDS011;43908;53.038;6.666;2022-07-15T15:20:29;2.17;;;1.02;;
58095;SDS011;43908;53.038;6.666;2022-07-15T15:22:54;2.33;;;0.93;;
58095;SDS011;43908;53.038;6.666;2022-07-15T15:25:20;1.63;;;0.82;;
58095;SDS011;43908;53.038;6.666;2022-07-15T15:28:24;3.58;;;1.13;;
58095;SDS011;43908;53.038;6.666;2022-07-15T15:30:50;2.28;;;1.10;;
58095;SDS011;43908;53.038;6.666;2022-07-15T15:33:15;1.63;;;1.33;;
58095;SDS011;43908;53.038;6.666;2022-07-15T15:35:41;3.05;;;1.20;;
58095;SDS011;43908;53.038;6.666;2022-07-15T15:38:07;3.13;;;1.30;;
58095;SDS011;43908;53.038;6.666;2022-07-15T15:40:33;3.30;;;1.20;;
58095;SDS011;43908;53.038;6.666;2022-07-15T15:42:58;1.90;;;1.10;;
58095;SDS011;43908;53.038;6.666;2022-07-15T15:45:24;2.80;;;1.70;;
58095;SDS011;43908;53.038;6.666;2022-07-15T15:47:49;2.53;;;1.20;;
58095;SDS011;43908;53.038;6.666;2022-07-15T15:50:15;2.28;;;1.00;;
58095;SDS011;43908;53.038;6.666;2022-07-15T15:52:42;6.07;;;1.20;;
58095;SDS011;43908;53.038;6.666;2022-07-15T15:55:08;4.10;;;1.33;;
58095;SDS011;43908;53.038;6.666;2022-07-15T15:57:34;1.90;;;1.00;;
58095;SDS011;43908;53.038;6.666;2022-07-15T16:00:00;1.95;;;1.13;;